首页
METAR-TAF:

METAR-TAF

机场 :

Bückeburg, 德国

纬度: 52-17N, 经度: 009-05E, 海拔: 70米

当前天气观测

该预报发布于34分钟前的18:20 UTC
风速9节,风向西
温度 26°C
湿度 51%
气压 1021 hPa
能見度: 4500

METAR: ETHB 221820Z AUTO 27009KT 4500 // ////// 26/15 Q1021 ///

时间: 20:54 (18:54 UTC)

预报

该预报发布于3小时和55分钟前的14:59 UTC
预报有效从22日的 14点(UTC)到 22日的 23点(UTC)
风速6节,风向西
能見度: 1515
少量云层高于6000英尺
散云层高于12000英尺
多云层高于26000英尺

TAF: ETHB 221459Z 2214/2223 26006KT 9999 NSW FEW060 SCT120 BKN260 CANCEL 1515

超过4000个机场的气象观测和天气预报(METAR&TAF报告)。

可查询的气象台以黄色和红色小点在地图上表示。

将鼠标移到小点上方,可查看气象台名称。

然后点击查看天气观测和预报。

如需切换地图:点击带黑十字的绿色按钮放大地图;点击带横线的绿色按钮缩小地图;或者点击绿色箭头查看邻近地区的地图。


METAR-TAF: